sensor_id;sensor_type;location;lat;lon;timestamp;temperature;humidity
8676;DHT22;4375;52.486;13.424;2022-12-07T00:01:23;3.80;99.90
8676;DHT22;4375;52.486;13.424;2022-12-07T00:03:52;3.70;99.90
8676;DHT22;4375;52.486;13.424;2022-12-07T00:06:19;3.60;99.90
8676;DHT22;4375;52.486;13.424;2022-12-07T00:08:45;3.70;99.90
8676;DHT22;4375;52.486;13.424;2022-12-07T00:11:20;3.70;99.90
8676;DHT22;4375;52.486;13.424;2022-12-07T00:13:46;3.80;99.90
8676;DHT22;4375;52.486;13.424;2022-12-07T00:16:15;3.70;99.90
8676;DHT22;4375;52.486;13.424;2022-12-07T00:18:42;3.70;99.90
8676;DHT22;4375;52.486;13.424;2022-12-07T00:21:13;3.60;99.90
8676;DHT22;4375;52.486;13.424;2022-12-07T00:23:40;3.60;99.90
8676;DHT22;4375;52.486;13.424;2022-12-07T00:26:08;3.60;99.90
8676;DHT22;4375;52.486;13.424;2022-12-07T00:28:34;3.50;99.90
8676;DHT22;4375;52.486;13.424;2022-12-07T00:31:11;3.50;99.90
8676;DHT22;4375;52.486;13.424;2022-12-07T00:33:38;3.50;99.90
8676;DHT22;4375;52.486;13.424;2022-12-07T00:36:07;3.50;99.90
8676;DHT22;4375;52.486;13.424;2022-12-07T00:38:34;3.60;99.90
8676;DHT22;4375;52.486;13.424;2022-12-07T00:41:03;3.60;99.90
8676;DHT22;4375;52.486;13.424;2022-12-07T00:43:29;3.50;99.90
8676;DHT22;4375;52.486;13.424;2022-12-07T00:45:56;3.50;99.90
8676;DHT22;4375;52.486;13.424;2022-12-07T00:48:23;3.40;99.90
8676;DHT22;4375;52.486;13.424;2022-12-07T00:50:49;3.40;99.90
8676;DHT22;4375;52.486;13.424;2022-12-07T00:53:16;3.30;99.90
8676;DHT22;4375;52.486;13.424;2022-12-07T00:55:42;3.20;99.90
8676;DHT22;4375;52.486;13.424;2022-12-07T00:58:08;3.20;99.90
8676;DHT22;4375;52.486;13.424;2022-12-07T01:00:35;3.20;99.90
8676;DHT22;4375;52.486;13.424;2022-12-07T01:03:01;3.20;99.90
8676;DHT22;4375;52.486;13.424;2022-12-07T01:05:27;3.10;99.90
8676;DHT22;4375;52.486;13.424;2022-12-07T01:07:56;3.20;99.90
8676;DHT22;4375;52.486;13.424;2022-12-07T01:10:21;3.10;99.90
8676;DHT22;4375;52.486;13.424;2022-12-07T01:12:47;3.00;99.90
8676;DHT22;4375;52.486;13.424;2022-12-07T01:15:13;2.90;99.90
8676;DHT22;4375;52.486;13.424;2022-12-07T01:17:39;2.90;99.90
8676;DHT22;4375;52.486;13.424;2022-12-07T01:20:05;3.00;99.90
8676;DHT22;4375;52.486;13.424;2022-12-07T01:22:31;3.00;99.90
8676;DHT22;4375;52.486;13.424;2022-12-07T01:24:56;3.00;99.90
8676;DHT22;4375;52.486;13.424;2022-12-07T01:27:22;3.10;99.90
8676;DHT22;4375;52.486;13.424;2022-12-07T01:29:48;3.00;99.90
8676;DHT22;4375;52.486;13.424;2022-12-07T01:32:13;3.20;99.90
8676;DHT22;4375;52.486;13.424;2022-12-07T01:34:39;3.10;99.90
8676;DHT22;4375;52.486;13.424;2022-12-07T01:37:04;3.20;99.90
8676;DHT22;4375;52.486;13.424;2022-12-07T01:39:30;3.10;99.90
8676;DHT22;4375;52.486;13.424;2022-12-07T01:41:56;3.20;99.90
8676;DHT22;4375;52.486;13.424;2022-12-07T01:44:26;3.10;99.90
8676;DHT22;4375;52.486;13.424;2022-12-07T01:46:55;3.10;99.90
8676;DHT22;4375;52.486;13.424;2022-12-07T01:49:40;3.10;99.90
8676;DHT22;4375;52.486;13.424;2022-12-07T01:54:42;3.10;99.90
8676;DHT22;4375;52.486;13.424;2022-12-07T01:57:09;3.20;99.90
8676;DHT22;4375;52.486;13.424;2022-12-07T01:59:35;3.20;99.90
8676;DHT22;4375;52.486;13.424;2022-12-07T02:02:03;3.20;99.90
8676;DHT22;4375;52.486;13.424;2022-12-07T02:04:32;3.30;99.90
8676;DHT22;4375;52.486;13.424;2022-12-07T02:06:59;3.20;99.90
8676;DHT22;4375;52.486;13.424;2022-12-07T02:09:24;3.20;99.90
8676;DHT22;4375;52.486;13.424;2022-12-07T02:11:51;3.20;99.90
8676;DHT22;4375;52.486;13.424;2022-12-07T02:14:17;3.30;99.90
8676;DHT22;4375;52.486;13.424;2022-12-07T02:17:11;3.20;99.90
8676;DHT22;4375;52.486;13.424;2022-12-07T02:20:05;3.20;99.90
8676;DHT22;4375;52.486;13.424;2022-12-07T02:28:55;3.20;99.90
8676;DHT22;4375;52.486;13.424;2022-12-07T02:31:25;3.00;99.90
8676;DHT22;4375;52.486;13.424;2022-12-07T02:34:26;3.00;99.90
8676;DHT22;4375;52.486;13.424;2022-12-07T02:36:57;3.00;99.90
8676;DHT22;4375;52.486;13.424;2022-12-07T02:39:38;3.00;99.90
8676;DHT22;4375;52.486;13.424;2022-12-07T02:42:14;2.90;99.90
8676;DHT22;4375;52.486;13.424;2022-12-07T02:44:41;3.00;99.90
8676;DHT22;4375;52.486;13.424;2022-12-07T02:47:09;3.00;99.90
8676;DHT22;4375;52.486;13.424;2022-12-07T02:49:37;3.00;99.90
8676;DHT22;4375;52.486;13.424;2022-12-07T02:52:04;2.90;99.90
8676;DHT22;4375;52.486;13.424;2022-12-07T02:54:29;2.90;99.90
8676;DHT22;4375;52.486;13.424;2022-12-07T02:56:57;2.90;99.90
8676;DHT22;4375;52.486;13.424;2022-12-07T03:02:58;2.90;99.90
8676;DHT22;4375;52.486;13.424;2022-12-07T03:15:35;2.80;99.90
8676;DHT22;4375;52.486;13.424;2022-12-07T03:18:03;2.80;99.90
8676;DHT22;4375;52.486;13.424;2022-12-07T03:20:30;2.70;99.90
8676;DHT22;4375;52.486;13.424;2022-12-07T03:22:57;2.70;99.90
8676;DHT22;4375;52.486;13.424;2022-12-07T03:25:26;2.70;99.90
8676;DHT22;4375;52.486;13.424;2022-12-07T03:28:13;2.70;99.90
8676;DHT22;4375;52.486;13.424;2022-12-07T03:30:53;2.80;99.90
8676;DHT22;4375;52.486;13.424;2022-12-07T03:33:25;2.70;99.90
8676;DHT22;4375;52.486;13.424;2022-12-07T03:36:20;2.80;99.90
8676;DHT22;4375;52.486;13.424;2022-12-07T03:38:53;2.80;99.90
8676;DHT22;4375;52.486;13.424;2022-12-07T03:41:24;2.70;99.90
8676;DHT22;4375;52.486;13.424;2022-12-07T03:43:51;2.70;99.90
8676;DHT22;4375;52.486;13.424;2022-12-07T03:49:23;2.70;99.90
8676;DHT22;4375;52.486;13.424;2022-12-07T03:51:55;2.70;99.90
8676;DHT22;4375;52.486;13.424;2022-12-07T03:54:47;2.60;99.90
8676;DHT22;4375;52.486;13.424;2022-12-07T03:57:15;2.60;99.90
8676;DHT22;4375;52.486;13.424;2022-12-07T03:59:42;2.60;99.90
8676;DHT22;4375;52.486;13.424;2022-12-07T04:02:11;2.60;99.90
8676;DHT22;4375;52.486;13.424;2022-12-07T04:04:38;2.60;99.90
8676;DHT22;4375;52.486;13.424;2022-12-07T04:07:04;2.60;99.90
8676;DHT22;4375;52.486;13.424;2022-12-07T04:09:30;2.70;99.90
8676;DHT22;4375;52.486;13.424;2022-12-07T04:11:56;2.60;99.90
8676;DHT22;4375;52.486;13.424;2022-12-07T04:14:22;2.70;99.90
8676;DHT22;4375;52.486;13.424;2022-12-07T04:16:53;2.60;99.90
8676;DHT22;4375;52.486;13.424;2022-12-07T04:19:20;2.60;99.90
8676;DHT22;4375;52.486;13.424;2022-12-07T04:21:46;2.60;99.90
8676;DHT22;4375;52.486;13.424;2022-12-07T04:24:13;2.60;99.90
8676;DHT22;4375;52.486;13.424;2022-12-07T04:26:40;2.60;99.90
8676;DHT22;4375;52.486;13.424;2022-12-07T04:29:06;2.60;99.90
8676;DHT22;4375;52.486;13.424;2022-12-07T04:31:32;2.60;99.90
8676;DHT22;4375;52.486;13.424;2022-12-07T04:33:57;2.70;99.90
8676;DHT22;4375;52.486;13.424;2022-12-07T04:36:23;2.70;99.90
8676;DHT22;4375;52.486;13.424;2022-12-07T04:38:49;2.70;99.90
8676;DHT22;4375;52.486;13.424;2022-12-07T04:41:14;2.70;99.90
8676;DHT22;4375;52.486;13.424;2022-12-07T04:43:40;2.80;99.90
8676;DHT22;4375;52.486;13.424;2022-12-07T04:46:05;2.80;99.90
8676;DHT22;4375;52.486;13.424;2022-12-07T04:48:31;2.80;99.90
8676;DHT22;4375;52.486;13.424;2022-12-07T04:50:57;2.70;99.90
8676;DHT22;4375;52.486;13.424;2022-12-07T04:53:22;2.70;99.90
8676;DHT22;4375;52.486;13.424;2022-12-07T04:55:48;2.70;99.90
8676;DHT22;4375;52.486;13.424;2022-12-07T04:58:14;2.70;99.90
8676;DHT22;4375;52.486;13.424;2022-12-07T05:00:41;2.70;99.90
8676;DHT22;4375;52.486;13.424;2022-12-07T05:03:06;2.70;99.90
8676;DHT22;4375;52.486;13.424;2022-12-07T05:05:32;2.90;99.90
8676;DHT22;4375;52.486;13.424;2022-12-07T05:07:58;2.90;99.90
8676;DHT22;4375;52.486;13.424;2022-12-07T05:10:23;2.90;99.90
8676;DHT22;4375;52.486;13.424;2022-12-07T05:12:49;2.90;99.90
8676;DHT22;4375;52.486;13.424;2022-12-07T05:15:15;2.80;99.90
8676;DHT22;4375;52.486;13.424;2022-12-07T05:17:41;2.80;99.90
8676;DHT22;4375;52.486;13.424;2022-12-07T05:20:08;2.90;99.90
8676;DHT22;4375;52.486;13.424;2022-12-07T05:22:34;2.90;99.90
8676;DHT22;4375;52.486;13.424;2022-12-07T05:25:00;2.90;99.90
8676;DHT22;4375;52.486;13.424;2022-12-07T05:27:26;3.00;99.90
8676;DHT22;4375;52.486;13.424;2022-12-07T05:29:53;3.00;99.90
8676;DHT22;4375;52.486;13.424;2022-12-07T05:32:18;2.90;99.90
8676;DHT22;4375;52.486;13.424;2022-12-07T05:34:44;3.00;99.90
8676;DHT22;4375;52.486;13.424;2022-12-07T05:37:09;3.00;99.90
8676;DHT22;4375;52.486;13.424;2022-12-07T05:39:35;3.00;99.90
8676;DHT22;4375;52.486;13.424;2022-12-07T05:42:01;3.00;99.90
8676;DHT22;4375;52.486;13.424;2022-12-07T05:44:43;3.00;99.90
8676;DHT22;4375;52.486;13.424;2022-12-07T05:47:16;3.10;99.90
8676;DHT22;4375;52.486;13.424;2022-12-07T05:49:42;3.10;99.90
8676;DHT22;4375;52.486;13.424;2022-12-07T05:52:08;3.10;99.90
8676;DHT22;4375;52.486;13.424;2022-12-07T05:54:33;3.20;99.90
8676;DHT22;4375;52.486;13.424;2022-12-07T05:56:59;3.30;99.90
8676;DHT22;4375;52.486;13.424;2022-12-07T05:59:25;3.30;99.90
8676;DHT22;4375;52.486;13.424;2022-12-07T06:01:55;3.30;99.90
8676;DHT22;4375;52.486;13.424;2022-12-07T06:04:21;3.30;99.90
8676;DHT22;4375;52.486;13.424;2022-12-07T06:06:47;3.30;99.90
8676;DHT22;4375;52.486;13.424;2022-12-07T06:09:13;3.40;99.90
8676;DHT22;4375;52.486;13.424;2022-12-07T06:11:40;3.40;99.90
8676;DHT22;4375;52.486;13.424;2022-12-07T06:14:24;3.30;99.90
8676;DHT22;4375;52.486;13.424;2022-12-07T06:16:50;3.40;99.90
8676;DHT22;4375;52.486;13.424;2022-12-07T06:19:16;3.40;99.90
8676;DHT22;4375;52.486;13.424;2022-12-07T06:21:41;3.40;99.90
8676;DHT22;4375;52.486;13.424;2022-12-07T06:24:10;3.50;99.90
8676;DHT22;4375;52.486;13.424;2022-12-07T06:26:36;3.50;99.90
8676;DHT22;4375;52.486;13.424;2022-12-07T06:29:01;3.50;99.90
8676;DHT22;4375;52.486;13.424;2022-12-07T06:31:27;3.40;99.90
8676;DHT22;4375;52.486;13.424;2022-12-07T06:34:00;3.60;99.90
8676;DHT22;4375;52.486;13.424;2022-12-07T06:36:26;3.60;99.90
8676;DHT22;4375;52.486;13.424;2022-12-07T06:38:52;3.60;99.90
8676;DHT22;4375;52.486;13.424;2022-12-07T06:41:18;3.70;99.90
8676;DHT22;4375;52.486;13.424;2022-12-07T06:43:43;3.60;99.90
8676;DHT22;4375;52.486;13.424;2022-12-07T06:46:09;3.70;99.90
8676;DHT22;4375;52.486;13.424;2022-12-07T06:48:34;3.60;99.90
8676;DHT22;4375;52.486;13.424;2022-12-07T06:51:00;3.60;99.90
8676;DHT22;4375;52.486;13.424;2022-12-07T06:53:26;3.60;99.90
8676;DHT22;4375;52.486;13.424;2022-12-07T06:55:51;3.60;99.90
8676;DHT22;4375;52.486;13.424;2022-12-07T06:58:17;3.60;99.90
8676;DHT22;4375;52.486;13.424;2022-12-07T07:00:44;3.60;99.90
8676;DHT22;4375;52.486;13.424;2022-12-07T07:03:09;3.60;99.90
8676;DHT22;4375;52.486;13.424;2022-12-07T07:05:35;3.60;99.90
8676;DHT22;4375;52.486;13.424;2022-12-07T07:08:01;3.70;99.90
8676;DHT22;4375;52.486;13.424;2022-12-07T07:10:26;3.80;99.90
8676;DHT22;4375;52.486;13.424;2022-12-07T07:12:52;3.90;99.90
8676;DHT22;4375;52.486;13.424;2022-12-07T07:15:18;3.90;99.90
8676;DHT22;4375;52.486;13.424;2022-12-07T07:17:43;3.90;99.90
8676;DHT22;4375;52.486;13.424;2022-12-07T07:20:09;4.00;99.90
8676;DHT22;4375;52.486;13.424;2022-12-07T07:22:35;4.00;99.90
8676;DHT22;4375;52.486;13.424;2022-12-07T07:25:01;4.10;99.90
8676;DHT22;4375;52.486;13.424;2022-12-07T07:27:26;4.10;99.90
8676;DHT22;4375;52.486;13.424;2022-12-07T07:29:52;4.10;99.90
8676;DHT22;4375;52.486;13.424;2022-12-07T07:32:18;4.10;99.90
8676;DHT22;4375;52.486;13.424;2022-12-07T07:34:43;4.10;99.90
8676;DHT22;4375;52.486;13.424;2022-12-07T07:37:09;4.20;99.90
8676;DHT22;4375;52.486;13.424;2022-12-07T07:39:38;4.20;99.90
8676;DHT22;4375;52.486;13.424;2022-12-07T07:42:04;4.20;99.90
8676;DHT22;4375;52.486;13.424;2022-12-07T07:44:29;4.20;99.90
8676;DHT22;4375;52.486;13.424;2022-12-07T07:46:55;4.20;99.90
8676;DHT22;4375;52.486;13.424;2022-12-07T07:49:21;4.20;99.90
8676;DHT22;4375;52.486;13.424;2022-12-07T07:51:46;4.20;99.90
8676;DHT22;4375;52.486;13.424;2022-12-07T07:54:12;4.10;99.90
8676;DHT22;4375;52.486;13.424;2022-12-07T07:56:37;4.10;99.90
8676;DHT22;4375;52.486;13.424;2022-12-07T07:59:03;4.20;99.90
8676;DHT22;4375;52.486;13.424;2022-12-07T08:01:29;4.20;99.90
8676;DHT22;4375;52.486;13.424;2022-12-07T08:03:54;4.30;99.90
8676;DHT22;4375;52.486;13.424;2022-12-07T08:06:20;4.30;99.90
8676;DHT22;4375;52.486;13.424;2022-12-07T08:08:46;4.30;99.90
8676;DHT22;4375;52.486;13.424;2022-12-07T08:11:11;4.30;99.90
8676;DHT22;4375;52.486;13.424;2022-12-07T08:13:37;4.40;99.90
8676;DHT22;4375;52.486;13.424;2022-12-07T08:16:08;4.40;99.90
8676;DHT22;4375;52.486;13.424;2022-12-07T08:18:36;4.50;99.90
8676;DHT22;4375;52.486;13.424;2022-12-07T08:21:02;4.50;99.90
8676;DHT22;4375;52.486;13.424;2022-12-07T08:23:28;4.50;99.90
8676;DHT22;4375;52.486;13.424;2022-12-07T08:25:54;4.50;99.90
8676;DHT22;4375;52.486;13.424;2022-12-07T08:28:20;4.40;99.90
8676;DHT22;4375;52.486;13.424;2022-12-07T08:30:46;4.60;99.90
8676;DHT22;4375;52.486;13.424;2022-12-07T08:33:11;4.60;99.90
8676;DHT22;4375;52.486;13.424;2022-12-07T08:35:37;4.50;99.90
8676;DHT22;4375;52.486;13.424;2022-12-07T08:38:03;4.60;99.90
8676;DHT22;4375;52.486;13.424;2022-12-07T08:40:29;4.50;99.90
8676;DHT22;4375;52.486;13.424;2022-12-07T08:42:55;4.50;99.90
8676;DHT22;4375;52.486;13.424;2022-12-07T08:45:21;4.50;99.90
8676;DHT22;4375;52.486;13.424;2022-12-07T08:47:57;4.50;99.90
8676;DHT22;4375;52.486;13.424;2022-12-07T08:50:25;4.60;99.90
8676;DHT22;4375;52.486;13.424;2022-12-07T08:52:53;4.60;99.90
8676;DHT22;4375;52.486;13.424;2022-12-07T08:55:19;4.60;99.90
8676;DHT22;4375;52.486;13.424;2022-12-07T08:57:45;4.60;99.90
8676;DHT22;4375;52.486;13.424;2022-12-07T09:00:12;4.70;99.90
8676;DHT22;4375;52.486;13.424;2022-12-07T09:02:40;4.70;99.90
8676;DHT22;4375;52.486;13.424;2022-12-07T09:05:06;4.70;99.90
8676;DHT22;4375;52.486;13.424;2022-12-07T09:07:35;4.80;99.90
8676;DHT22;4375;52.486;13.424;2022-12-07T09:10:03;4.80;99.90
8676;DHT22;4375;52.486;13.424;2022-12-07T09:12:29;4.80;99.90
8676;DHT22;4375;52.486;13.424;2022-12-07T09:14:55;4.60;99.90
8676;DHT22;4375;52.486;13.424;2022-12-07T09:17:21;4.60;99.90
8676;DHT22;4375;52.486;13.424;2022-12-07T09:19:46;4.70;99.90
8676;DHT22;4375;52.486;13.424;2022-12-07T09:22:12;4.70;99.90
8676;DHT22;4375;52.486;13.424;2022-12-07T09:24:38;4.60;99.90
8676;DHT22;4375;52.486;13.424;2022-12-07T09:27:03;4.50;99.90
8676;DHT22;4375;52.486;13.424;2022-12-07T09:29:29;4.50;99.90
8676;DHT22;4375;52.486;13.424;2022-12-07T09:31:54;4.50;99.90
8676;DHT22;4375;52.486;13.424;2022-12-07T09:34:20;4.50;99.90
8676;DHT22;4375;52.486;13.424;2022-12-07T09:36:46;4.50;99.90
8676;DHT22;4375;52.486;13.424;2022-12-07T09:39:12;4.50;99.90
8676;DHT22;4375;52.486;13.424;2022-12-07T09:41:42;4.60;99.90
8676;DHT22;4375;52.486;13.424;2022-12-07T09:44:23;4.50;99.90
8676;DHT22;4375;52.486;13.424;2022-12-07T09:46:49;4.60;99.90
8676;DHT22;4375;52.486;13.424;2022-12-07T09:49:24;4.50;99.90
8676;DHT22;4375;52.486;13.424;2022-12-07T09:52:30;4.40;99.90
8676;DHT22;4375;52.486;13.424;2022-12-07T09:55:03;4.40;99.90
8676;DHT22;4375;52.486;13.424;2022-12-07T09:57:31;4.50;99.90
8676;DHT22;4375;52.486;13.424;2022-12-07T10:00:19;4.40;99.90
8676;DHT22;4375;52.486;13.424;2022-12-07T10:02:56;4.40;99.90
8676;DHT22;4375;52.486;13.424;2022-12-07T10:07:56;4.50;99.90
8676;DHT22;4375;52.486;13.424;2022-12-07T10:10:29;4.50;99.90
8676;DHT22;4375;52.486;13.424;2022-12-07T10:13:06;4.50;99.90
8676;DHT22;4375;52.486;13.424;2022-12-07T10:22:36;4.60;99.90
8676;DHT22;4375;52.486;13.424;2022-12-07T10:25:09;4.50;99.90
8676;DHT22;4375;52.486;13.424;2022-12-07T10:27:42;4.40;99.90
8676;DHT22;4375;52.486;13.424;2022-12-07T10:30:12;4.50;99.90
8676;DHT22;4375;52.486;13.424;2022-12-07T10:32:39;4.50;99.90
8676;DHT22;4375;52.486;13.424;2022-12-07T10:38:07;4.60;99.90
8676;DHT22;4375;52.486;13.424;2022-12-07T10:41:04;4.50;99.90
8676;DHT22;4375;52.486;13.424;2022-12-07T10:43:54;4.60;99.90
8676;DHT22;4375;52.486;13.424;2022-12-07T10:46:44;4.50;99.90
8676;DHT22;4375;52.486;13.424;2022-12-07T11:01:52;4.50;99.90
8676;DHT22;4375;52.486;13.424;2022-12-07T11:04:36;4.50;99.90
8676;DHT22;4375;52.486;13.424;2022-12-07T11:10:22;4.50;99.90
8676;DHT22;4375;52.486;13.424;2022-12-07T11:13:24;4.70;99.90
8676;DHT22;4375;52.486;13.424;2022-12-07T11:16:21;4.70;99.90
8676;DHT22;4375;52.486;13.424;2022-12-07T11:24:20;4.80;99.90
8676;DHT22;4375;52.486;13.424;2022-12-07T11:32:42;4.90;99.90
8676;DHT22;4375;52.486;13.424;2022-12-07T11:37:42;4.80;99.90
8676;DHT22;4375;52.486;13.424;2022-12-07T11:42:54;4.80;99.90
8676;DHT22;4375;52.486;13.424;2022-12-07T11:45:33;4.90;99.90
8676;DHT22;4375;52.486;13.424;2022-12-07T11:48:01;5.10;99.90
8676;DHT22;4375;52.486;13.424;2022-12-07T11:50:48;5.00;99.90
8676;DHT22;4375;52.486;13.424;2022-12-07T11:56:14;4.90;99.90
8676;DHT22;4375;52.486;13.424;2022-12-07T12:05:13;5.00;99.90
8676;DHT22;4375;52.486;13.424;2022-12-07T12:11:00;5.00;99.90
8676;DHT22;4375;52.486;13.424;2022-12-07T12:16:36;5.10;99.90
8676;DHT22;4375;52.486;13.424;2022-12-07T12:22:19;5.20;99.90
8676;DHT22;4375;52.486;13.424;2022-12-07T12:24:56;5.20;99.90
8676;DHT22;4375;52.486;13.424;2022-12-07T12:27:39;5.20;99.90
8676;DHT22;4375;52.486;13.424;2022-12-07T12:33:42;5.30;99.90
8676;DHT22;4375;52.486;13.424;2022-12-07T12:39:23;5.30;99.90
8676;DHT22;4375;52.486;13.424;2022-12-07T12:42:10;5.40;99.90
8676;DHT22;4375;52.486;13.424;2022-12-07T12:45:34;5.40;99.90
8676;DHT22;4375;52.486;13.424;2022-12-07T12:48:29;5.40;99.90
8676;DHT22;4375;52.486;13.424;2022-12-07T12:55:20;5.20;99.90
8676;DHT22;4375;52.486;13.424;2022-12-07T13:20:44;5.30;99.90
8676;DHT22;4375;52.486;13.424;2022-12-07T13:26:59;5.20;99.90
8676;DHT22;4375;52.486;13.424;2022-12-07T13:29:38;5.20;99.90
8676;DHT22;4375;52.486;13.424;2022-12-07T13:32:34;5.30;99.90
8676;DHT22;4375;52.486;13.424;2022-12-07T13:38:03;5.40;99.90
8676;DHT22;4375;52.486;13.424;2022-12-07T13:40:32;5.30;99.90
8676;DHT22;4375;52.486;13.424;2022-12-07T13:43:22;5.40;99.90
8676;DHT22;4375;52.486;13.424;2022-12-07T13:46:10;5.30;99.90
8676;DHT22;4375;52.486;13.424;2022-12-07T13:52:02;5.30;99.90
8676;DHT22;4375;52.486;13.424;2022-12-07T13:54:47;5.30;99.90
8676;DHT22;4375;52.486;13.424;2022-12-07T13:57:37;5.30;99.90
8676;DHT22;4375;52.486;13.424;2022-12-07T14:00:28;5.20;99.90
8676;DHT22;4375;52.486;13.424;2022-12-07T14:14:59;5.10;99.90
8676;DHT22;4375;52.486;13.424;2022-12-07T14:27:56;4.90;99.90
8676;DHT22;4375;52.486;13.424;2022-12-07T14:53:17;4.70;99.90
8676;DHT22;4375;52.486;13.424;2022-12-07T14:56:10;4.70;99.90
8676;DHT22;4375;52.486;13.424;2022-12-07T14:58:36;4.60;99.90
8676;DHT22;4375;52.486;13.424;2022-12-07T15:01:01;4.60;99.90
8676;DHT22;4375;52.486;13.424;2022-12-07T15:03:50;4.60;99.90
8676;DHT22;4375;52.486;13.424;2022-12-07T15:06:21;4.50;99.90
8676;DHT22;4375;52.486;13.424;2022-12-07T15:09:02;4.50;99.90
8676;DHT22;4375;52.486;13.424;2022-12-07T15:15:00;4.40;99.90
8676;DHT22;4375;52.486;13.424;2022-12-07T15:17:27;4.30;99.90
8676;DHT22;4375;52.486;13.424;2022-12-07T15:19:52;4.30;99.90
8676;DHT22;4375;52.486;13.424;2022-12-07T15:22:25;4.30;99.90
8676;DHT22;4375;52.486;13.424;2022-12-07T15:27:30;4.20;99.90
8676;DHT22;4375;52.486;13.424;2022-12-07T15:29:56;4.20;99.90
8676;DHT22;4375;52.486;13.424;2022-12-07T15:32:22;4.20;99.90
8676;DHT22;4375;52.486;13.424;2022-12-07T15:34:48;4.20;99.90
8676;DHT22;4375;52.486;13.424;2022-12-07T15:37:15;4.20;99.90
8676;DHT22;4375;52.486;13.424;2022-12-07T15:39:41;4.10;99.90
8676;DHT22;4375;52.486;13.424;2022-12-07T15:42:06;4.20;99.90
8676;DHT22;4375;52.486;13.424;2022-12-07T15:44:32;4.30;99.90
8676;DHT22;4375;52.486;13.424;2022-12-07T15:47:16;4.30;99.90
8676;DHT22;4375;52.486;13.424;2022-12-07T15:49:43;4.30;99.90
8676;DHT22;4375;52.486;13.424;2022-12-07T15:52:08;4.30;99.90
8676;DHT22;4375;52.486;13.424;2022-12-07T15:54:34;4.40;99.90
8676;DHT22;4375;52.486;13.424;2022-12-07T15:57:00;4.30;99.90
8676;DHT22;4375;52.486;13.424;2022-12-07T15:59:27;4.30;99.90
8676;DHT22;4375;52.486;13.424;2022-12-07T16:01:53;4.30;99.90
8676;DHT22;4375;52.486;13.424;2022-12-07T16:04:19;4.20;99.90
8676;DHT22;4375;52.486;13.424;2022-12-07T16:06:44;4.20;99.90
8676;DHT22;4375;52.486;13.424;2022-12-07T16:09:10;4.30;99.90
8676;DHT22;4375;52.486;13.424;2022-12-07T16:11:38;4.30;99.90
8676;DHT22;4375;52.486;13.424;2022-12-07T16:14:04;4.30;99.90
8676;DHT22;4375;52.486;13.424;2022-12-07T16:16:30;4.30;99.90
8676;DHT22;4375;52.486;13.424;2022-12-07T16:18:57;4.10;99.90
8676;DHT22;4375;52.486;13.424;2022-12-07T16:21:23;4.10;99.90
8676;DHT22;4375;52.486;13.424;2022-12-07T16:23:49;4.10;99.90
8676;DHT22;4375;52.486;13.424;2022-12-07T16:26:17;4.00;99.90
8676;DHT22;4375;52.486;13.424;2022-12-07T16:28:44;3.90;99.90
8676;DHT22;4375;52.486;13.424;2022-12-07T16:31:15;4.00;99.90
8676;DHT22;4375;52.486;13.424;2022-12-07T16:33:43;3.90;99.90
8676;DHT22;4375;52.486;13.424;2022-12-07T16:39:06;3.80;99.90
8676;DHT22;4375;52.486;13.424;2022-12-07T16:41:40;3.90;99.90
8676;DHT22;4375;52.486;13.424;2022-12-07T16:50:28;3.90;99.90
8676;DHT22;4375;52.486;13.424;2022-12-07T16:52:54;3.90;99.90
8676;DHT22;4375;52.486;13.424;2022-12-07T16:58:14;3.80;99.90
8676;DHT22;4375;52.486;13.424;2022-12-07T17:00:56;3.90;99.90
8676;DHT22;4375;52.486;13.424;2022-12-07T17:03:22;3.70;99.90
8676;DHT22;4375;52.486;13.424;2022-12-07T17:05:48;3.60;99.90
8676;DHT22;4375;52.486;13.424;2022-12-07T17:08:14;3.70;99.90
8676;DHT22;4375;52.486;13.424;2022-12-07T17:10:45;3.70;99.90
8676;DHT22;4375;52.486;13.424;2022-12-07T17:13:17;3.60;99.90
8676;DHT22;4375;52.486;13.424;2022-12-07T17:16:04;3.60;99.90
8676;DHT22;4375;52.486;13.424;2022-12-07T17:18:34;3.70;99.90
8676;DHT22;4375;52.486;13.424;2022-12-07T17:21:08;3.60;99.90
8676;DHT22;4375;52.486;13.424;2022-12-07T17:23:37;3.60;99.90
8676;DHT22;4375;52.486;13.424;2022-12-07T17:26:25;3.50;99.90
8676;DHT22;4375;52.486;13.424;2022-12-07T17:29:06;3.60;99.90
8676;DHT22;4375;52.486;13.424;2022-12-07T17:31:35;3.50;99.90
8676;DHT22;4375;52.486;13.424;2022-12-07T17:34:15;3.60;99.90
8676;DHT22;4375;52.486;13.424;2022-12-07T17:40:20;3.50;99.90
8676;DHT22;4375;52.486;13.424;2022-12-07T17:42:46;3.50;99.90
8676;DHT22;4375;52.486;13.424;2022-12-07T17:45:32;3.40;99.90
8676;DHT22;4375;52.486;13.424;2022-12-07T17:48:04;3.40;99.90
8676;DHT22;4375;52.486;13.424;2022-12-07T17:50:47;3.40;99.90
8676;DHT22;4375;52.486;13.424;2022-12-07T18:00:18;3.40;99.90
8676;DHT22;4375;52.486;13.424;2022-12-07T18:02:44;3.40;99.90
8676;DHT22;4375;52.486;13.424;2022-12-07T18:05:15;3.40;99.90
8676;DHT22;4375;52.486;13.424;2022-12-07T18:07:43;3.40;99.90
8676;DHT22;4375;52.486;13.424;2022-12-07T18:11:02;3.30;99.90
8676;DHT22;4375;52.486;13.424;2022-12-07T18:14:11;3.20;99.90
8676;DHT22;4375;52.486;13.424;2022-12-07T18:16:46;3.20;99.90
8676;DHT22;4375;52.486;13.424;2022-12-07T18:19:47;3.20;99.90
8676;DHT22;4375;52.486;13.424;2022-12-07T18:26:14;3.10;99.90
8676;DHT22;4375;52.486;13.424;2022-12-07T18:28:48;3.20;99.90
8676;DHT22;4375;52.486;13.424;2022-12-07T18:31:17;3.10;99.90
8676;DHT22;4375;52.486;13.424;2022-12-07T18:33:50;3.10;99.90
8676;DHT22;4375;52.486;13.424;2022-12-07T18:36:20;3.10;99.90
8676;DHT22;4375;52.486;13.424;2022-12-07T18:38:49;3.10;99.90
8676;DHT22;4375;52.486;13.424;2022-12-07T18:41:24;3.10;99.90
8676;DHT22;4375;52.486;13.424;2022-12-07T18:51:39;3.00;99.90
8676;DHT22;4375;52.486;13.424;2022-12-07T18:54:44;2.90;99.90
8676;DHT22;4375;52.486;13.424;2022-12-07T19:04:21;2.90;99.90
8676;DHT22;4375;52.486;13.424;2022-12-07T19:12:58;2.80;99.90
8676;DHT22;4375;52.486;13.424;2022-12-07T19:15:35;2.80;99.90
8676;DHT22;4375;52.486;13.424;2022-12-07T19:18:13;2.80;99.90
8676;DHT22;4375;52.486;13.424;2022-12-07T19:20:50;2.80;99.90
8676;DHT22;4375;52.486;13.424;2022-12-07T19:23:28;2.80;99.90
8676;DHT22;4375;52.486;13.424;2022-12-07T19:29:07;2.80;99.90
8676;DHT22;4375;52.486;13.424;2022-12-07T19:32:11;2.80;99.90
8676;DHT22;4375;52.486;13.424;2022-12-07T19:35:05;2.80;99.90
8676;DHT22;4375;52.486;13.424;2022-12-07T19:41:14;2.80;99.90
8676;DHT22;4375;52.486;13.424;2022-12-07T19:50:38;2.70;99.90
8676;DHT22;4375;52.486;13.424;2022-12-07T19:53:10;2.70;99.90
8676;DHT22;4375;52.486;13.424;2022-12-07T19:55:42;2.60;99.90
8676;DHT22;4375;52.486;13.424;2022-12-07T20:01:33;2.60;99.90
8676;DHT22;4375;52.486;13.424;2022-12-07T20:03:59;2.60;99.90
8676;DHT22;4375;52.486;13.424;2022-12-07T20:06:28;2.60;99.90
8676;DHT22;4375;52.486;13.424;2022-12-07T20:09:01;2.50;99.90
8676;DHT22;4375;52.486;13.424;2022-12-07T20:11:43;2.60;99.90
8676;DHT22;4375;52.486;13.424;2022-12-07T20:14:45;2.50;99.90
8676;DHT22;4375;52.486;13.424;2022-12-07T20:17:22;2.50;99.90
8676;DHT22;4375;52.486;13.424;2022-12-07T20:33:49;2.40;99.90
8676;DHT22;4375;52.486;13.424;2022-12-07T20:36:40;2.50;99.90
8676;DHT22;4375;52.486;13.424;2022-12-07T20:39:27;2.50;99.90
8676;DHT22;4375;52.486;13.424;2022-12-07T20:45:32;2.40;99.90
8676;DHT22;4375;52.486;13.424;2022-12-07T20:52:12;2.40;99.90
8676;DHT22;4375;52.486;13.424;2022-12-07T20:58:44;2.30;99.90
8676;DHT22;4375;52.486;13.424;2022-12-07T21:01:36;2.40;99.90